sensor_id;sensor_type;location;lat;lon;timestamp;P1;durP1;ratioP1;P2;durP2;ratioP2
58302;SDS011;44109;52.398;7.024;2022-08-03T00:01:27;2.47;;;1.90;;
58302;SDS011;44109;52.398;7.024;2022-08-03T00:03:55;3.85;;;2.35;;
58302;SDS011;44109;52.398;7.024;2022-08-03T00:06:24;4.93;;;2.10;;
58302;SDS011;44109;52.398;7.024;2022-08-03T00:08:51;3.85;;;2.15;;
58302;SDS011;44109;52.398;7.024;2022-08-03T00:11:19;4.03;;;2.35;;
58302;SDS011;44109;52.398;7.024;2022-08-03T00:13:47;3.47;;;2.25;;
58302;SDS011;44109;52.398;7.024;2022-08-03T00:16:15;3.70;;;2.40;;
58302;SDS011;44109;52.398;7.024;2022-08-03T00:18:43;3.95;;;2.63;;
58302;SDS011;44109;52.398;7.024;2022-08-03T00:21:11;2.90;;;1.83;;
58302;SDS011;44109;52.398;7.024;2022-08-03T00:23:40;3.28;;;1.92;;
58302;SDS011;44109;52.398;7.024;2022-08-03T00:26:07;3.40;;;2.60;;
58302;SDS011;44109;52.398;7.024;2022-08-03T00:28:35;3.30;;;1.80;;
58302;SDS011;44109;52.398;7.024;2022-08-03T00:31:03;3.60;;;2.28;;
58302;SDS011;44109;52.398;7.024;2022-08-03T00:33:31;3.05;;;1.83;;
58302;SDS011;44109;52.398;7.024;2022-08-03T00:35:58;9.27;;;2.60;;
58302;SDS011;44109;52.398;7.024;2022-08-03T00:38:26;3.33;;;2.20;;
58302;SDS011;44109;52.398;7.024;2022-08-03T00:40:55;3.78;;;2.50;;
58302;SDS011;44109;52.398;7.024;2022-08-03T00:43:24;3.75;;;2.20;;
58302;SDS011;44109;52.398;7.024;2022-08-03T00:45:55;3.55;;;1.98;;
58302;SDS011;44109;52.398;7.024;2022-08-03T00:48:22;3.58;;;1.92;;
58302;SDS011;44109;52.398;7.024;2022-08-03T00:50:50;3.63;;;2.20;;
58302;SDS011;44109;52.398;7.024;2022-08-03T00:53:19;2.65;;;2.08;;
58302;SDS011;44109;52.398;7.024;2022-08-03T00:55:48;3.45;;;2.35;;
58302;SDS011;44109;52.398;7.024;2022-08-03T00:58:17;3.15;;;2.22;;
58302;SDS011;44109;52.398;7.024;2022-08-03T01:00:44;4.72;;;2.53;;
58302;SDS011;44109;52.398;7.024;2022-08-03T01:03:12;3.92;;;2.45;;
58302;SDS011;44109;52.398;7.024;2022-08-03T01:05:43;3.08;;;2.28;;
58302;SDS011;44109;52.398;7.024;2022-08-03T01:08:27;3.42;;;2.47;;
58302;SDS011;44109;52.398;7.024;2022-08-03T01:11:11;3.70;;;2.53;;
58302;SDS011;44109;52.398;7.024;2022-08-03T01:13:52;3.17;;;1.85;;
58302;SDS011;44109;52.398;7.024;2022-08-03T01:16:30;5.45;;;2.53;;
58302;SDS011;44109;52.398;7.024;2022-08-03T01:19:10;4.80;;;2.38;;
58302;SDS011;44109;52.398;7.024;2022-08-03T01:22:05;3.58;;;2.20;;
58302;SDS011;44109;52.398;7.024;2022-08-03T01:25:04;4.60;;;2.67;;
58302;SDS011;44109;52.398;7.024;2022-08-03T01:27:44;3.95;;;2.35;;
58302;SDS011;44109;52.398;7.024;2022-08-03T01:30:26;3.87;;;2.13;;
58302;SDS011;44109;52.398;7.024;2022-08-03T01:32:59;2.97;;;2.03;;
58302;SDS011;44109;52.398;7.024;2022-08-03T01:35:33;3.78;;;2.45;;
58302;SDS011;44109;52.398;7.024;2022-08-03T01:38:08;3.60;;;2.25;;
58302;SDS011;44109;52.398;7.024;2022-08-03T01:40:41;3.28;;;2.25;;
58302;SDS011;44109;52.398;7.024;2022-08-03T01:43:14;4.05;;;2.70;;
58302;SDS011;44109;52.398;7.024;2022-08-03T01:45:46;3.72;;;2.70;;
58302;SDS011;44109;52.398;7.024;2022-08-03T01:48:16;5.78;;;2.92;;
58302;SDS011;44109;52.398;7.024;2022-08-03T01:50:45;4.57;;;2.25;;
58302;SDS011;44109;52.398;7.024;2022-08-03T01:53:15;3.67;;;2.10;;
58302;SDS011;44109;52.398;7.024;2022-08-03T01:55:47;3.78;;;2.35;;
58302;SDS011;44109;52.398;7.024;2022-08-03T01:58:19;3.45;;;2.00;;
58302;SDS011;44109;52.398;7.024;2022-08-03T02:00:52;3.13;;;2.20;;
58302;SDS011;44109;52.398;7.024;2022-08-03T02:03:25;4.38;;;2.20;;
58302;SDS011;44109;52.398;7.024;2022-08-03T02:05:55;4.82;;;3.05;;
58302;SDS011;44109;52.398;7.024;2022-08-03T02:08:25;5.03;;;2.80;;
58302;SDS011;44109;52.398;7.024;2022-08-03T02:10:56;3.95;;;2.53;;
58302;SDS011;44109;52.398;7.024;2022-08-03T02:13:26;5.57;;;2.72;;
58302;SDS011;44109;52.398;7.024;2022-08-03T02:15:57;4.10;;;2.75;;
58302;SDS011;44109;52.398;7.024;2022-08-03T02:18:25;3.72;;;1.95;;
58302;SDS011;44109;52.398;7.024;2022-08-03T02:20:54;3.70;;;2.17;;
58302;SDS011;44109;52.398;7.024;2022-08-03T02:23:24;5.50;;;2.40;;
58302;SDS011;44109;52.398;7.024;2022-08-03T02:25:52;4.18;;;2.70;;
58302;SDS011;44109;52.398;7.024;2022-08-03T02:28:29;3.83;;;2.25;;
58302;SDS011;44109;52.398;7.024;2022-08-03T02:31:03;3.78;;;2.28;;
58302;SDS011;44109;52.398;7.024;2022-08-03T02:33:38;4.38;;;3.10;;
58302;SDS011;44109;52.398;7.024;2022-08-03T02:36:10;3.90;;;2.40;;
58302;SDS011;44109;52.398;7.024;2022-08-03T02:38:42;4.15;;;2.78;;
58302;SDS011;44109;52.398;7.024;2022-08-03T02:41:12;6.45;;;2.60;;
58302;SDS011;44109;52.398;7.024;2022-08-03T02:43:44;6.82;;;2.85;;
58302;SDS011;44109;52.398;7.024;2022-08-03T02:48:48;5.72;;;2.55;;
58302;SDS011;44109;52.398;7.024;2022-08-03T02:51:19;5.45;;;2.75;;
58302;SDS011;44109;52.398;7.024;2022-08-03T02:53:49;3.97;;;2.55;;
58302;SDS011;44109;52.398;7.024;2022-08-03T02:56:20;4.07;;;2.00;;
58302;SDS011;44109;52.398;7.024;2022-08-03T02:58:51;4.43;;;2.40;;
58302;SDS011;44109;52.398;7.024;2022-08-03T03:01:22;4.18;;;2.67;;
58302;SDS011;44109;52.398;7.024;2022-08-03T03:03:53;4.38;;;2.83;;
58302;SDS011;44109;52.398;7.024;2022-08-03T03:06:24;3.60;;;2.78;;
58302;SDS011;44109;52.398;7.024;2022-08-03T03:08:52;4.30;;;2.45;;
58302;SDS011;44109;52.398;7.024;2022-08-03T03:11:21;4.13;;;2.85;;
58302;SDS011;44109;52.398;7.024;2022-08-03T03:13:52;3.75;;;2.60;;
58302;SDS011;44109;52.398;7.024;2022-08-03T03:16:24;4.82;;;2.22;;
58302;SDS011;44109;52.398;7.024;2022-08-03T03:18:54;5.32;;;2.45;;
58302;SDS011;44109;52.398;7.024;2022-08-03T03:21:23;6.20;;;3.10;;
58302;SDS011;44109;52.398;7.024;2022-08-03T03:23:54;4.03;;;2.42;;
58302;SDS011;44109;52.398;7.024;2022-08-03T03:26:23;3.92;;;2.60;;
58302;SDS011;44109;52.398;7.024;2022-08-03T03:28:51;3.60;;;2.53;;
58302;SDS011;44109;52.398;7.024;2022-08-03T03:31:19;3.28;;;2.50;;
58302;SDS011;44109;52.398;7.024;2022-08-03T03:33:49;4.60;;;2.60;;
58302;SDS011;44109;52.398;7.024;2022-08-03T03:36:17;4.88;;;3.00;;
58302;SDS011;44109;52.398;7.024;2022-08-03T03:38:45;5.45;;;3.00;;
58302;SDS011;44109;52.398;7.024;2022-08-03T03:41:12;4.07;;;2.60;;
58302;SDS011;44109;52.398;7.024;2022-08-03T03:43:40;3.72;;;2.38;;
58302;SDS011;44109;52.398;7.024;2022-08-03T03:46:11;10.88;;;3.58;;
58302;SDS011;44109;52.398;7.024;2022-08-03T03:48:39;5.13;;;2.53;;
58302;SDS011;44109;52.398;7.024;2022-08-03T03:51:08;3.40;;;2.47;;
58302;SDS011;44109;52.398;7.024;2022-08-03T03:53:36;4.07;;;2.70;;
58302;SDS011;44109;52.398;7.024;2022-08-03T03:56:04;5.72;;;3.17;;
58302;SDS011;44109;52.398;7.024;2022-08-03T03:58:31;3.80;;;2.83;;
58302;SDS011;44109;52.398;7.024;2022-08-03T04:00:59;4.00;;;2.55;;
58302;SDS011;44109;52.398;7.024;2022-08-03T04:03:27;7.63;;;3.72;;
58302;SDS011;44109;52.398;7.024;2022-08-03T04:05:55;5.00;;;3.03;;
58302;SDS011;44109;52.398;7.024;2022-08-03T04:08:42;6.60;;;3.47;;
58302;SDS011;44109;52.398;7.024;2022-08-03T04:11:40;5.38;;;2.88;;
58302;SDS011;44109;52.398;7.024;2022-08-03T04:14:15;4.75;;;3.45;;
58302;SDS011;44109;52.398;7.024;2022-08-03T04:16:48;4.00;;;2.80;;
58302;SDS011;44109;52.398;7.024;2022-08-03T04:19:24;5.75;;;3.40;;
58302;SDS011;44109;52.398;7.024;2022-08-03T04:21:59;5.20;;;3.47;;
58302;SDS011;44109;52.398;7.024;2022-08-03T04:24:33;5.35;;;3.45;;
58302;SDS011;44109;52.398;7.024;2022-08-03T04:27:06;4.32;;;3.47;;
58302;SDS011;44109;52.398;7.024;2022-08-03T04:29:38;4.80;;;3.17;;
58302;SDS011;44109;52.398;7.024;2022-08-03T04:32:11;5.63;;;3.50;;
58302;SDS011;44109;52.398;7.024;2022-08-03T04:34:41;4.95;;;3.20;;
58302;SDS011;44109;52.398;7.024;2022-08-03T04:37:09;5.60;;;3.50;;
58302;SDS011;44109;52.398;7.024;2022-08-03T04:39:42;5.18;;;3.53;;
58302;SDS011;44109;52.398;7.024;2022-08-03T04:42:14;6.55;;;3.28;;
58302;SDS011;44109;52.398;7.024;2022-08-03T04:44:46;4.57;;;3.37;;
58302;SDS011;44109;52.398;7.024;2022-08-03T04:47:16;6.00;;;3.47;;
58302;SDS011;44109;52.398;7.024;2022-08-03T04:49:43;5.50;;;3.65;;
58302;SDS011;44109;52.398;7.024;2022-08-03T04:52:11;6.68;;;4.05;;
58302;SDS011;44109;52.398;7.024;2022-08-03T04:54:40;5.63;;;4.30;;
58302;SDS011;44109;52.398;7.024;2022-08-03T04:57:10;9.65;;;4.65;;
58302;SDS011;44109;52.398;7.024;2022-08-03T04:59:38;5.40;;;3.95;;
58302;SDS011;44109;52.398;7.024;2022-08-03T05:02:05;11.55;;;5.45;;
58302;SDS011;44109;52.398;7.024;2022-08-03T05:04:33;8.57;;;4.30;;
58302;SDS011;44109;52.398;7.024;2022-08-03T05:07:00;6.28;;;4.30;;
58302;SDS011;44109;52.398;7.024;2022-08-03T05:09:28;8.70;;;5.35;;
58302;SDS011;44109;52.398;7.024;2022-08-03T05:11:57;8.38;;;5.40;;
58302;SDS011;44109;52.398;7.024;2022-08-03T05:14:24;7.97;;;5.30;;
58302;SDS011;44109;52.398;7.024;2022-08-03T05:16:52;9.57;;;6.07;;
58302;SDS011;44109;52.398;7.024;2022-08-03T05:19:19;7.97;;;5.15;;
58302;SDS011;44109;52.398;7.024;2022-08-03T05:21:47;8.05;;;5.38;;
58302;SDS011;44109;52.398;7.024;2022-08-03T05:24:14;8.50;;;5.28;;
58302;SDS011;44109;52.398;7.024;2022-08-03T05:26:42;9.05;;;5.40;;
58302;SDS011;44109;52.398;7.024;2022-08-03T05:29:11;7.93;;;5.32;;
58302;SDS011;44109;52.398;7.024;2022-08-03T05:31:38;7.13;;;4.40;;
58302;SDS011;44109;52.398;7.024;2022-08-03T05:34:06;6.03;;;4.90;;
58302;SDS011;44109;52.398;7.024;2022-08-03T05:36:33;7.85;;;4.93;;
58302;SDS011;44109;52.398;7.024;2022-08-03T05:39:01;8.60;;;5.25;;
58302;SDS011;44109;52.398;7.024;2022-08-03T05:41:29;8.27;;;4.45;;
58302;SDS011;44109;52.398;7.024;2022-08-03T05:43:57;7.07;;;4.30;;
58302;SDS011;44109;52.398;7.024;2022-08-03T05:46:25;5.55;;;3.55;;
58302;SDS011;44109;52.398;7.024;2022-08-03T05:48:53;5.85;;;3.65;;
58302;SDS011;44109;52.398;7.024;2022-08-03T05:51:20;6.78;;;4.05;;
58302;SDS011;44109;52.398;7.024;2022-08-03T05:53:48;5.38;;;3.78;;
58302;SDS011;44109;52.398;7.024;2022-08-03T05:56:16;6.20;;;3.53;;
58302;SDS011;44109;52.398;7.024;2022-08-03T05:58:44;5.90;;;3.58;;
58302;SDS011;44109;52.398;7.024;2022-08-03T06:01:13;5.20;;;3.20;;
58302;SDS011;44109;52.398;7.024;2022-08-03T06:03:42;5.78;;;3.53;;
58302;SDS011;44109;52.398;7.024;2022-08-03T06:06:10;5.18;;;3.08;;
58302;SDS011;44109;52.398;7.024;2022-08-03T06:08:38;5.63;;;3.25;;
58302;SDS011;44109;52.398;7.024;2022-08-03T06:11:06;4.70;;;2.25;;
58302;SDS011;44109;52.398;7.024;2022-08-03T06:13:34;3.97;;;2.45;;
58302;SDS011;44109;52.398;7.024;2022-08-03T06:16:02;5.43;;;2.95;;
58302;SDS011;44109;52.398;7.024;2022-08-03T06:18:30;6.88;;;2.83;;
58302;SDS011;44109;52.398;7.024;2022-08-03T06:20:59;4.82;;;2.40;;
58302;SDS011;44109;52.398;7.024;2022-08-03T06:23:27;4.57;;;1.83;;
58302;SDS011;44109;52.398;7.024;2022-08-03T06:25:55;5.03;;;1.98;;
58302;SDS011;44109;52.398;7.024;2022-08-03T06:28:22;3.50;;;1.73;;
58302;SDS011;44109;52.398;7.024;2022-08-03T06:30:50;5.57;;;1.95;;
58302;SDS011;44109;52.398;7.024;2022-08-03T06:33:17;4.47;;;1.85;;
58302;SDS011;44109;52.398;7.024;2022-08-03T06:35:45;4.40;;;2.00;;
58302;SDS011;44109;52.398;7.024;2022-08-03T06:38:14;4.07;;;1.98;;
58302;SDS011;44109;52.398;7.024;2022-08-03T06:40:41;3.30;;;1.95;;
58302;SDS011;44109;52.398;7.024;2022-08-03T06:43:09;5.85;;;1.80;;
58302;SDS011;44109;52.398;7.024;2022-08-03T06:45:36;5.65;;;1.90;;
58302;SDS011;44109;52.398;7.024;2022-08-03T06:48:05;5.78;;;2.00;;
58302;SDS011;44109;52.398;7.024;2022-08-03T06:50:36;4.43;;;1.63;;
58302;SDS011;44109;52.398;7.024;2022-08-03T06:53:06;5.18;;;2.10;;
58302;SDS011;44109;52.398;7.024;2022-08-03T06:55:36;6.40;;;2.60;;
58302;SDS011;44109;52.398;7.024;2022-08-03T06:58:04;4.70;;;2.20;;
58302;SDS011;44109;52.398;7.024;2022-08-03T07:00:31;3.45;;;1.88;;
58302;SDS011;44109;52.398;7.024;2022-08-03T07:02:59;5.97;;;2.20;;
58302;SDS011;44109;52.398;7.024;2022-08-03T07:05:26;3.53;;;2.00;;
58302;SDS011;44109;52.398;7.024;2022-08-03T07:07:55;5.05;;;1.85;;
58302;SDS011;44109;52.398;7.024;2022-08-03T07:10:24;3.78;;;1.92;;
58302;SDS011;44109;52.398;7.024;2022-08-03T07:12:53;6.07;;;2.33;;
58302;SDS011;44109;52.398;7.024;2022-08-03T07:15:21;5.15;;;2.45;;
58302;SDS011;44109;52.398;7.024;2022-08-03T07:17:49;5.05;;;2.33;;
58302;SDS011;44109;52.398;7.024;2022-08-03T07:20:16;6.68;;;1.88;;
58302;SDS011;44109;52.398;7.024;2022-08-03T07:22:44;4.97;;;1.90;;
58302;SDS011;44109;52.398;7.024;2022-08-03T07:25:11;4.82;;;1.95;;
58302;SDS011;44109;52.398;7.024;2022-08-03T07:27:41;4.07;;;1.80;;
58302;SDS011;44109;52.398;7.024;2022-08-03T07:30:11;6.43;;;2.00;;
58302;SDS011;44109;52.398;7.024;2022-08-03T07:32:40;6.88;;;1.88;;
58302;SDS011;44109;52.398;7.024;2022-08-03T07:35:08;4.10;;;1.83;;
58302;SDS011;44109;52.398;7.024;2022-08-03T07:37:37;4.10;;;1.73;;
58302;SDS011;44109;52.398;7.024;2022-08-03T07:40:05;4.43;;;1.77;;
58302;SDS011;44109;52.398;7.024;2022-08-03T07:42:33;6.18;;;1.70;;
58302;SDS011;44109;52.398;7.024;2022-08-03T07:45:01;5.13;;;1.65;;
58302;SDS011;44109;52.398;7.024;2022-08-03T07:47:30;5.95;;;2.17;;
58302;SDS011;44109;52.398;7.024;2022-08-03T07:49:58;6.13;;;1.65;;
58302;SDS011;44109;52.398;7.024;2022-08-03T07:52:25;5.57;;;1.80;;
58302;SDS011;44109;52.398;7.024;2022-08-03T07:55:10;5.72;;;1.83;;
58302;SDS011;44109;52.398;7.024;2022-08-03T07:57:37;6.68;;;1.85;;
58302;SDS011;44109;52.398;7.024;2022-08-03T08:00:06;4.30;;;1.33;;
58302;SDS011;44109;52.398;7.024;2022-08-03T08:02:42;4.00;;;1.42;;
58302;SDS011;44109;52.398;7.024;2022-08-03T08:05:10;3.28;;;1.25;;
58302;SDS011;44109;52.398;7.024;2022-08-03T08:07:39;5.38;;;1.60;;
58302;SDS011;44109;52.398;7.024;2022-08-03T08:10:07;4.97;;;1.50;;
58302;SDS011;44109;52.398;7.024;2022-08-03T08:12:36;4.30;;;1.67;;
58302;SDS011;44109;52.398;7.024;2022-08-03T08:15:06;4.43;;;1.60;;
58302;SDS011;44109;52.398;7.024;2022-08-03T08:17:42;5.97;;;1.70;;
58302;SDS011;44109;52.398;7.024;2022-08-03T08:20:14;5.28;;;1.40;;
58302;SDS011;44109;52.398;7.024;2022-08-03T08:22:45;5.90;;;1.33;;
58302;SDS011;44109;52.398;7.024;2022-08-03T08:25:13;5.47;;;1.30;;
58302;SDS011;44109;52.398;7.024;2022-08-03T08:27:41;2.72;;;1.30;;
58302;SDS011;44109;52.398;7.024;2022-08-03T08:30:11;3.25;;;1.40;;
58302;SDS011;44109;52.398;7.024;2022-08-03T08:32:42;4.63;;;1.23;;
58302;SDS011;44109;52.398;7.024;2022-08-03T08:35:10;6.40;;;1.15;;
58302;SDS011;44109;52.398;7.024;2022-08-03T08:37:38;6.07;;;1.50;;
58302;SDS011;44109;52.398;7.024;2022-08-03T08:40:07;5.78;;;1.70;;
58302;SDS011;44109;52.398;7.024;2022-08-03T08:42:35;4.40;;;1.88;;
58302;SDS011;44109;52.398;7.024;2022-08-03T08:45:05;4.10;;;1.63;;
58302;SDS011;44109;52.398;7.024;2022-08-03T08:47:35;3.35;;;1.38;;
58302;SDS011;44109;52.398;7.024;2022-08-03T08:50:08;3.00;;;1.45;;
58302;SDS011;44109;52.398;7.024;2022-08-03T08:52:38;7.07;;;1.90;;
58302;SDS011;44109;52.398;7.024;2022-08-03T08:55:08;4.45;;;1.55;;
58302;SDS011;44109;52.398;7.024;2022-08-03T08:57:41;5.32;;;1.27;;
58302;SDS011;44109;52.398;7.024;2022-08-03T09:00:14;3.22;;;0.98;;
58302;SDS011;44109;52.398;7.024;2022-08-03T09:02:43;7.13;;;1.70;;
58302;SDS011;44109;52.398;7.024;2022-08-03T09:05:14;3.75;;;1.33;;
58302;SDS011;44109;52.398;7.024;2022-08-03T09:07:44;4.10;;;1.50;;
58302;SDS011;44109;52.398;7.024;2022-08-03T09:10:14;4.28;;;1.17;;
58302;SDS011;44109;52.398;7.024;2022-08-03T09:12:47;2.47;;;1.00;;
58302;SDS011;44109;52.398;7.024;2022-08-03T09:15:17;4.15;;;1.38;;
58302;SDS011;44109;52.398;7.024;2022-08-03T09:17:48;3.35;;;1.10;;
58302;SDS011;44109;52.398;7.024;2022-08-03T09:20:20;3.42;;;1.20;;
58302;SDS011;44109;52.398;7.024;2022-08-03T09:22:51;3.15;;;1.20;;
58302;SDS011;44109;52.398;7.024;2022-08-03T09:25:25;3.63;;;1.10;;
58302;SDS011;44109;52.398;7.024;2022-08-03T09:27:56;4.32;;;1.17;;
58302;SDS011;44109;52.398;7.024;2022-08-03T09:30:33;8.75;;;1.15;;
58302;SDS011;44109;52.398;7.024;2022-08-03T09:33:02;3.72;;;1.13;;
58302;SDS011;44109;52.398;7.024;2022-08-03T09:35:33;2.42;;;0.88;;
58302;SDS011;44109;52.398;7.024;2022-08-03T09:38:09;4.55;;;1.05;;
58302;SDS011;44109;52.398;7.024;2022-08-03T09:40:39;5.18;;;1.17;;
58302;SDS011;44109;52.398;7.024;2022-08-03T09:43:08;9.82;;;1.60;;
58302;SDS011;44109;52.398;7.024;2022-08-03T09:45:37;5.43;;;1.40;;
58302;SDS011;44109;52.398;7.024;2022-08-03T09:48:18;2.47;;;0.85;;
58302;SDS011;44109;52.398;7.024;2022-08-03T09:50:50;6.82;;;1.13;;
58302;SDS011;44109;52.398;7.024;2022-08-03T09:53:19;2.42;;;1.08;;
58302;SDS011;44109;52.398;7.024;2022-08-03T09:55:51;5.38;;;1.58;;
58302;SDS011;44109;52.398;7.024;2022-08-03T09:58:21;5.95;;;1.65;;
58302;SDS011;44109;52.398;7.024;2022-08-03T10:00:52;5.22;;;1.45;;
58302;SDS011;44109;52.398;7.024;2022-08-03T10:03:22;5.25;;;1.77;;
58302;SDS011;44109;52.398;7.024;2022-08-03T10:05:53;7.68;;;1.92;;
58302;SDS011;44109;52.398;7.024;2022-08-03T10:08:21;7.82;;;2.42;;
58302;SDS011;44109;52.398;7.024;2022-08-03T10:10:49;8.50;;;1.70;;
58302;SDS011;44109;52.398;7.024;2022-08-03T10:13:20;6.97;;;1.42;;
58302;SDS011;44109;52.398;7.024;2022-08-03T10:15:48;6.03;;;1.95;;
58302;SDS011;44109;52.398;7.024;2022-08-03T10:18:17;4.35;;;1.55;;
58302;SDS011;44109;52.398;7.024;2022-08-03T10:20:45;7.40;;;1.73;;
58302;SDS011;44109;52.398;7.024;2022-08-03T10:23:20;6.32;;;1.60;;
58302;SDS011;44109;52.398;7.024;2022-08-03T10:25:51;6.35;;;1.85;;
58302;SDS011;44109;52.398;7.024;2022-08-03T10:28:27;5.85;;;1.63;;
58302;SDS011;44109;52.398;7.024;2022-08-03T10:31:01;6.72;;;2.28;;
58302;SDS011;44109;52.398;7.024;2022-08-03T10:33:33;9.55;;;2.40;;
58302;SDS011;44109;52.398;7.024;2022-08-03T10:36:07;4.18;;;1.63;;
58302;SDS011;44109;52.398;7.024;2022-08-03T10:38:42;14.45;;;1.83;;
58302;SDS011;44109;52.398;7.024;2022-08-03T10:41:17;9.82;;;2.70;;
58302;SDS011;44109;52.398;7.024;2022-08-03T10:43:49;9.95;;;2.55;;
58302;SDS011;44109;52.398;7.024;2022-08-03T10:46:22;6.93;;;1.90;;
58302;SDS011;44109;52.398;7.024;2022-08-03T10:48:53;6.97;;;1.90;;
58302;SDS011;44109;52.398;7.024;2022-08-03T10:51:22;9.77;;;3.05;;
58302;SDS011;44109;52.398;7.024;2022-08-03T11:05:36;10.48;;;2.70;;
58302;SDS011;44109;52.398;7.024;2022-08-03T11:08:19;5.78;;;1.92;;
58302;SDS011;44109;52.398;7.024;2022-08-03T11:11:01;10.38;;;2.75;;
58302;SDS011;44109;52.398;7.024;2022-08-03T11:13:57;12.32;;;3.03;;
58302;SDS011;44109;52.398;7.024;2022-08-03T11:16:28;7.40;;;1.90;;
58302;SDS011;44109;52.398;7.024;2022-08-03T11:19:00;7.30;;;2.25;;
58302;SDS011;44109;52.398;7.024;2022-08-03T11:27:39;8.95;;;3.33;;
58302;SDS011;44109;52.398;7.024;2022-08-03T11:30:07;13.02;;;3.05;;
58302;SDS011;44109;52.398;7.024;2022-08-03T11:35:25;9.10;;;2.75;;
58302;SDS011;44109;52.398;7.024;2022-08-03T11:38:02;11.23;;;3.10;;
58302;SDS011;44109;52.398;7.024;2022-08-03T11:40:35;7.30;;;2.60;;
58302;SDS011;44109;52.398;7.024;2022-08-03T11:43:42;9.68;;;1.92;;
58302;SDS011;44109;52.398;7.024;2022-08-03T11:46:13;11.35;;;2.80;;
58302;SDS011;44109;52.398;7.024;2022-08-03T11:48:46;9.27;;;3.22;;
58302;SDS011;44109;52.398;7.024;2022-08-03T11:51:20;10.88;;;2.40;;
58302;SDS011;44109;52.398;7.024;2022-08-03T11:53:53;11.40;;;3.08;;
58302;SDS011;44109;52.398;7.024;2022-08-03T11:56:22;7.78;;;2.33;;
58302;SDS011;44109;52.398;7.024;2022-08-03T11:58:53;7.65;;;2.88;;
58302;SDS011;44109;52.398;7.024;2022-08-03T12:01:23;11.05;;;2.78;;
58302;SDS011;44109;52.398;7.024;2022-08-03T12:03:52;10.57;;;2.60;;
58302;SDS011;44109;52.398;7.024;2022-08-03T12:06:19;12.77;;;2.72;;
58302;SDS011;44109;52.398;7.024;2022-08-03T12:08:48;13.90;;;2.53;;
58302;SDS011;44109;52.398;7.024;2022-08-03T12:11:16;9.32;;;2.85;;
58302;SDS011;44109;52.398;7.024;2022-08-03T12:13:45;6.63;;;2.53;;
58302;SDS011;44109;52.398;7.024;2022-08-03T12:16:17;6.97;;;2.15;;
58302;SDS011;44109;52.398;7.024;2022-08-03T12:18:53;6.30;;;2.65;;
58302;SDS011;44109;52.398;7.024;2022-08-03T12:21:22;8.40;;;2.65;;
58302;SDS011;44109;52.398;7.024;2022-08-03T12:23:49;8.30;;;2.35;;
58302;SDS011;44109;52.398;7.024;2022-08-03T12:26:22;9.98;;;2.03;;
58302;SDS011;44109;52.398;7.024;2022-08-03T12:28:49;8.60;;;2.90;;
58302;SDS011;44109;52.398;7.024;2022-08-03T12:31:18;5.70;;;2.25;;
58302;SDS011;44109;52.398;7.024;2022-08-03T12:33:56;9.15;;;2.20;;
58302;SDS011;44109;52.398;7.024;2022-08-03T12:36:28;7.72;;;2.08;;
58302;SDS011;44109;52.398;7.024;2022-08-03T12:38:58;4.82;;;1.88;;
58302;SDS011;44109;52.398;7.024;2022-08-03T12:41:29;7.00;;;2.03;;
58302;SDS011;44109;52.398;7.024;2022-08-03T12:43:58;9.10;;;2.40;;
58302;SDS011;44109;52.398;7.024;2022-08-03T12:46:30;6.85;;;2.17;;
58302;SDS011;44109;52.398;7.024;2022-08-03T12:49:04;10.15;;;2.50;;
58302;SDS011;44109;52.398;7.024;2022-08-03T12:51:36;10.40;;;2.10;;
58302;SDS011;44109;52.398;7.024;2022-08-03T12:54:23;15.82;;;3.60;;
58302;SDS011;44109;52.398;7.024;2022-08-03T12:56:57;8.52;;;2.63;;
58302;SDS011;44109;52.398;7.024;2022-08-03T12:59:27;8.48;;;2.40;;
58302;SDS011;44109;52.398;7.024;2022-08-03T13:01:58;8.75;;;2.30;;
58302;SDS011;44109;52.398;7.024;2022-08-03T13:04:27;10.93;;;2.53;;
58302;SDS011;44109;52.398;7.024;2022-08-03T13:06:57;8.32;;;2.15;;
58302;SDS011;44109;52.398;7.024;2022-08-03T13:09:28;9.98;;;3.45;;
58302;SDS011;44109;52.398;7.024;2022-08-03T13:12:03;8.52;;;2.28;;
58302;SDS011;44109;52.398;7.024;2022-08-03T13:14:33;10.65;;;2.33;;
58302;SDS011;44109;52.398;7.024;2022-08-03T13:17:02;7.00;;;2.33;;
58302;SDS011;44109;52.398;7.024;2022-08-03T13:19:32;15.13;;;2.83;;
58302;SDS011;44109;52.398;7.024;2022-08-03T13:21:59;7.30;;;1.85;;
58302;SDS011;44109;52.398;7.024;2022-08-03T13:24:28;7.47;;;2.08;;
58302;SDS011;44109;52.398;7.024;2022-08-03T13:26:56;5.15;;;1.20;;
58302;SDS011;44109;52.398;7.024;2022-08-03T13:29:23;6.20;;;2.17;;
58302;SDS011;44109;52.398;7.024;2022-08-03T13:31:51;8.07;;;2.13;;
58302;SDS011;44109;52.398;7.024;2022-08-03T13:34:19;6.97;;;2.05;;
58302;SDS011;44109;52.398;7.024;2022-08-03T13:36:47;4.82;;;1.70;;
58302;SDS011;44109;52.398;7.024;2022-08-03T13:39:15;7.80;;;1.90;;
58302;SDS011;44109;52.398;7.024;2022-08-03T13:41:42;8.45;;;1.70;;
58302;SDS011;44109;52.398;7.024;2022-08-03T13:44:09;8.23;;;1.70;;
58302;SDS011;44109;52.398;7.024;2022-08-03T13:46:37;12.40;;;2.90;;
58302;SDS011;44109;52.398;7.024;2022-08-03T13:49:05;10.38;;;2.47;;
58302;SDS011;44109;52.398;7.024;2022-08-03T13:51:34;5.93;;;2.08;;
58302;SDS011;44109;52.398;7.024;2022-08-03T13:54:02;7.10;;;1.90;;
58302;SDS011;44109;52.398;7.024;2022-08-03T13:56:30;7.72;;;1.55;;
58302;SDS011;44109;52.398;7.024;2022-08-03T13:58:58;6.20;;;1.80;;
58302;SDS011;44109;52.398;7.024;2022-08-03T14:01:25;6.13;;;1.80;;
58302;SDS011;44109;52.398;7.024;2022-08-03T14:03:53;6.10;;;1.30;;
58302;SDS011;44109;52.398;7.024;2022-08-03T14:06:21;5.60;;;1.58;;
58302;SDS011;44109;52.398;7.024;2022-08-03T14:08:52;6.63;;;1.92;;
58302;SDS011;44109;52.398;7.024;2022-08-03T14:11:20;5.55;;;1.40;;
58302;SDS011;44109;52.398;7.024;2022-08-03T14:13:47;5.28;;;1.45;;
58302;SDS011;44109;52.398;7.024;2022-08-03T14:16:15;4.78;;;1.35;;
58302;SDS011;44109;52.398;7.024;2022-08-03T14:18:42;6.18;;;1.80;;
58302;SDS011;44109;52.398;7.024;2022-08-03T14:21:10;2.80;;;1.08;;
58302;SDS011;44109;52.398;7.024;2022-08-03T14:23:39;6.18;;;2.08;;
58302;SDS011;44109;52.398;7.024;2022-08-03T14:26:08;6.55;;;1.92;;
58302;SDS011;44109;52.398;7.024;2022-08-03T14:28:36;8.40;;;2.03;;
58302;SDS011;44109;52.398;7.024;2022-08-03T14:31:04;4.78;;;1.67;;
58302;SDS011;44109;52.398;7.024;2022-08-03T14:33:32;8.98;;;1.88;;
58302;SDS011;44109;52.398;7.024;2022-08-03T14:35:59;6.47;;;2.30;;
58302;SDS011;44109;52.398;7.024;2022-08-03T14:38:26;7.88;;;1.95;;
58302;SDS011;44109;52.398;7.024;2022-08-03T14:40:54;6.38;;;1.70;;
58302;SDS011;44109;52.398;7.024;2022-08-03T14:43:23;7.32;;;1.80;;
58302;SDS011;44109;52.398;7.024;2022-08-03T14:45:51;8.68;;;2.08;;
58302;SDS011;44109;52.398;7.024;2022-08-03T14:48:20;6.60;;;2.00;;
58302;SDS011;44109;52.398;7.024;2022-08-03T14:50:49;4.50;;;1.42;;
58302;SDS011;44109;52.398;7.024;2022-08-03T14:53:19;5.18;;;1.73;;
58302;SDS011;44109;52.398;7.024;2022-08-03T14:55:47;11.05;;;2.15;;
58302;SDS011;44109;52.398;7.024;2022-08-03T14:58:15;6.93;;;2.35;;
58302;SDS011;44109;52.398;7.024;2022-08-03T15:00:44;7.38;;;2.03;;
58302;SDS011;44109;52.398;7.024;2022-08-03T15:03:12;6.70;;;2.03;;
58302;SDS011;44109;52.398;7.024;2022-08-03T15:05:39;9.63;;;2.08;;
58302;SDS011;44109;52.398;7.024;2022-08-03T15:08:07;5.72;;;2.20;;
58302;SDS011;44109;52.398;7.024;2022-08-03T15:10:34;6.88;;;1.67;;
58302;SDS011;44109;52.398;7.024;2022-08-03T15:13:03;4.78;;;2.03;;
58302;SDS011;44109;52.398;7.024;2022-08-03T15:15:30;5.90;;;1.33;;
58302;SDS011;44109;52.398;7.024;2022-08-03T15:17:59;4.78;;;1.63;;
58302;SDS011;44109;52.398;7.024;2022-08-03T15:20:27;3.80;;;1.58;;
58302;SDS011;44109;52.398;7.024;2022-08-03T15:22:54;7.65;;;2.10;;
58302;SDS011;44109;52.398;7.024;2022-08-03T15:25:22;5.63;;;1.83;;
58302;SDS011;44109;52.398;7.024;2022-08-03T15:27:50;6.38;;;1.95;;
58302;SDS011;44109;52.398;7.024;2022-08-03T15:30:18;7.25;;;1.58;;